createdAt,value
2018-11-04T00:00:07.549Z,91.10
2018-11-04T00:02:14.214Z,91.20
2018-11-04T00:04:19.247Z,91.10
2018-11-04T00:06:24.421Z,91.20
2018-11-04T00:08:54.296Z,91.20
2018-11-04T00:10:58.483Z,91.10
2018-11-04T00:13:03.409Z,91.10
2018-11-04T00:15:08.408Z,91.20
2018-11-04T00:17:15.037Z,91.50
2018-11-04T00:19:19.216Z,91.50
2018-11-04T00:21:23.272Z,91.10
2018-11-04T00:23:27.280Z,91.10
2018-11-04T00:25:34.082Z,91.20
2018-11-04T00:27:38.603Z,91.40
2018-11-04T00:29:42.608Z,91.40
2018-11-04T00:31:46.716Z,91.50
2018-11-04T00:33:51.341Z,91.60
2018-11-04T00:35:55.318Z,91.70
2018-11-04T00:38:07.596Z,91.70
2018-11-04T00:40:13.370Z,91.70
2018-11-04T00:42:18.545Z,91.80
2018-11-04T00:44:22.538Z,91.90
2018-11-04T00:46:29.339Z,91.90
2018-11-04T00:48:33.401Z,91.70
2018-11-04T00:50:37.317Z,91.90
2018-11-04T00:52:45.379Z,92.00
2018-11-04T00:54:50.394Z,92.00
2018-11-04T00:56:54.424Z,91.80
2018-11-04T00:59:00.483Z,91.80
2018-11-04T01:01:04.667Z,91.90
2018-11-04T01:03:08.919Z,92.20
2018-11-04T01:05:13.775Z,92.10
2018-11-04T01:07:20.308Z,92.30
2018-11-04T01:09:24.251Z,92.00
2018-11-04T01:11:28.224Z,92.00
2018-11-04T01:13:32.761Z,91.90
2018-11-04T01:15:36.736Z,91.80
2018-11-04T01:17:42.331Z,91.70
2018-11-04T01:19:46.316Z,91.60
2018-11-04T01:21:50.281Z,91.60
2018-11-04T01:23:54.266Z,91.60
2018-11-04T01:26:10.731Z,91.50
2018-11-04T01:28:14.619Z,91.70
2018-11-04T01:30:18.891Z,92.10
2018-11-04T01:32:23.240Z,92.10
2018-11-04T01:34:27.776Z,92.00
2018-11-04T01:36:31.924Z,92.10
2018-11-04T01:38:37.803Z,92.40
2018-11-04T01:40:41.828Z,92.10
2018-11-04T01:42:47.955Z,92.10
2018-11-04T01:44:53.707Z,92.10
2018-11-04T01:47:00.464Z,92.20
2018-11-04T01:49:05.972Z,92.20
2018-11-04T01:51:14.431Z,92.20
2018-11-04T01:53:20.447Z,92.10
2018-11-04T01:55:24.856Z,92.40
2018-11-04T01:57:28.788Z,92.60
2018-11-04T01:59:33.577Z,92.70
2018-11-04T02:01:39.265Z,92.60
2018-11-04T02:03:43.201Z,92.70
2018-11-04T02:05:47.192Z,92.80
2018-11-04T02:07:53.099Z,93.10
2018-11-04T02:09:57.556Z,92.90
2018-11-04T02:12:02.187Z,92.90
2018-11-04T02:14:07.159Z,93.10
2018-11-04T02:16:12.731Z,93.20
2018-11-04T02:18:17.111Z,93.30
2018-11-04T02:20:22.480Z,93.40
2018-11-04T02:22:26.450Z,93.30
2018-11-04T02:24:30.413Z,93.30
2018-11-04T02:26:39.445Z,93.60
2018-11-04T02:28:46.001Z,93.30
2018-11-04T02:30:50.451Z,93.20
2018-11-04T02:32:55.308Z,93.20
2018-11-04T02:34:59.254Z,93.20
2018-11-04T02:37:04.519Z,93.30
2018-11-04T02:39:09.538Z,93.20
2018-11-04T02:41:13.484Z,93.00
2018-11-04T02:43:18.886Z,93.10
2018-11-04T02:45:25.820Z,93.10
2018-11-04T02:47:30.250Z,93.10
2018-11-04T02:49:34.247Z,93.20
2018-11-04T02:51:40.262Z,93.20
2018-11-04T02:53:46.032Z,93.20
2018-11-04T02:55:49.947Z,93.20
2018-11-04T02:57:53.968Z,93.10
2018-11-04T02:59:57.991Z,93.00
2018-11-04T03:02:02.088Z,92.90
2018-11-04T03:04:06.096Z,93.00
2018-11-04T03:06:10.091Z,92.90
2018-11-04T03:08:14.134Z,92.80
2018-11-04T03:10:19.596Z,92.90
2018-11-04T03:12:23.964Z,92.70
2018-11-04T03:14:27.987Z,92.80
2018-11-04T03:16:32.262Z,93.00
2018-11-04T03:18:36.240Z,92.80
2018-11-04T03:20:41.720Z,92.90
2018-11-04T03:22:45.718Z,93.20
2018-11-04T03:24:51.431Z,93.30
2018-11-04T03:26:55.440Z,93.00
2018-11-04T03:28:59.343Z,92.90
2018-11-04T03:31:04.732Z,92.80
2018-11-04T03:33:09.392Z,92.80
2018-11-04T03:35:13.632Z,93.10
2018-11-04T03:37:17.663Z,93.40
2018-11-04T03:39:21.594Z,93.50
2018-11-04T03:41:25.624Z,93.60
2018-11-04T03:43:31.179Z,93.40
2018-11-04T03:45:35.251Z,93.40
2018-11-04T03:47:41.518Z,93.60
2018-11-04T03:49:46.291Z,93.40
2018-11-04T03:51:51.059Z,93.50
2018-11-04T03:53:55.036Z,93.80
2018-11-04T03:55:58.989Z,93.90
2018-11-04T03:58:04.121Z,94.00
2018-11-04T04:00:12.835Z,93.90
2018-11-04T04:02:16.868Z,93.90
2018-11-04T04:04:20.982Z,93.90
2018-11-04T04:06:26.018Z,93.90
2018-11-04T04:08:29.991Z,93.80
2018-11-04T04:10:33.964Z,93.80
2018-11-04T04:12:38.335Z,93.90
2018-11-04T04:14:43.397Z,94.10
2018-11-04T04:16:47.439Z,94.40
2018-11-04T04:18:51.420Z,94.20
2018-11-04T04:21:08.395Z,94.20
2018-11-04T04:23:13.182Z,94.50
2018-11-04T04:25:17.108Z,94.60
2018-11-04T04:27:21.535Z,94.40
2018-11-04T04:29:25.576Z,94.30
2018-11-04T04:31:29.882Z,94.20
2018-11-04T04:33:33.948Z,94.30
2018-11-04T04:35:38.064Z,94.40
2018-11-04T04:37:43.132Z,94.20
2018-11-04T04:39:47.527Z,94.10
2018-11-04T04:41:51.497Z,94.30
2018-11-04T04:43:58.447Z,94.40
2018-11-04T04:46:02.391Z,94.50
2018-11-04T04:48:06.913Z,94.50
2018-11-04T04:50:12.539Z,94.70
2018-11-04T04:52:17.667Z,94.70
2018-11-04T04:54:21.683Z,94.60
2018-11-04T04:56:26.262Z,94.50
2018-11-04T04:58:30.238Z,94.80
2018-11-04T05:00:34.903Z,94.90
2018-11-04T05:02:39.544Z,94.90
2018-11-04T05:04:43.509Z,94.80
2018-11-04T05:06:47.467Z,94.50
2018-11-04T05:08:51.496Z,94.50
2018-11-04T05:10:58.838Z,94.50
2018-11-04T05:13:04.232Z,94.40
2018-11-04T05:15:08.621Z,94.50
2018-11-04T05:17:14.084Z,94.50
2018-11-04T05:19:18.111Z,94.80
2018-11-04T05:21:25.387Z,94.90
2018-11-04T05:23:30.346Z,94.80
2018-11-04T05:25:34.276Z,94.80
2018-11-04T05:27:38.287Z,94.80
2018-11-04T05:29:42.381Z,94.90
2018-11-04T05:31:47.287Z,94.80
2018-11-04T05:33:51.279Z,94.70
2018-11-04T05:35:55.301Z,94.90
2018-11-04T05:38:00.872Z,94.90
2018-11-04T05:40:05.996Z,94.90
2018-11-04T05:42:09.984Z,95.10
2018-11-04T05:44:14.924Z,95.30
2018-11-04T05:46:18.877Z,95.30
2018-11-04T05:48:22.859Z,95.60
2018-11-04T05:50:26.868Z,95.70
2018-11-04T05:52:30.939Z,95.80
2018-11-04T05:54:34.950Z,95.80
2018-11-04T05:56:42.433Z,95.90
2018-11-04T05:58:46.862Z,95.90
2018-11-04T06:00:51.169Z,95.80
2018-11-04T06:02:57.413Z,95.70
2018-11-04T06:05:01.883Z,95.70
2018-11-04T06:07:06.967Z,95.70
2018-11-04T06:09:11.359Z,95.70
2018-11-04T06:11:15.255Z,95.90
2018-11-04T06:13:19.175Z,96.10
2018-11-04T06:15:24.967Z,96.30
2018-11-04T06:17:28.986Z,96.10
2018-11-04T06:19:32.981Z,96.20
2018-11-04T06:21:36.907Z,96.30
2018-11-04T06:23:40.919Z,96.30
2018-11-04T06:25:44.988Z,96.20
2018-11-04T06:27:49.135Z,96.40
2018-11-04T06:29:53.073Z,96.20
2018-11-04T06:31:57.129Z,96.40
2018-11-04T06:34:01.091Z,96.40
2018-11-04T06:36:05.457Z,96.30
2018-11-04T06:38:09.430Z,96.40
2018-11-04T06:40:13.439Z,96.50
2018-11-04T06:42:17.508Z,96.60
2018-11-04T06:44:23.021Z,96.70
2018-11-04T06:46:27.179Z,96.70
2018-11-04T06:48:31.315Z,96.80
2018-11-04T06:50:35.364Z,97.10
2018-11-04T06:52:39.729Z,97.00
2018-11-04T06:54:43.693Z,96.90
2018-11-04T06:56:47.693Z,96.90
2018-11-04T06:58:52.228Z,96.70
2018-11-04T07:00:56.549Z,96.60
2018-11-04T07:03:00.523Z,96.70
2018-11-04T07:05:05.732Z,96.70
2018-11-04T07:07:09.727Z,96.70
2018-11-04T07:09:14.851Z,96.50
2018-11-04T07:11:18.787Z,96.50
2018-11-04T07:13:23.758Z,96.40
2018-11-04T07:15:28.711Z,96.50
2018-11-04T07:17:32.747Z,96.40
2018-11-04T07:19:36.651Z,96.30
2018-11-04T07:21:40.873Z,96.20
2018-11-04T07:23:44.901Z,96.10
2018-11-04T07:25:48.975Z,96.10
2018-11-04T07:27:52.844Z,96.10
2018-11-04T07:29:56.869Z,96.10
2018-11-04T07:32:08.126Z,96.20
2018-11-04T07:34:12.266Z,96.50
2018-11-04T07:36:23.015Z,96.40
2018-11-04T07:38:29.515Z,96.30
2018-11-04T07:40:37.398Z,96.20
2018-11-04T07:42:41.742Z,96.40
2018-11-04T07:44:46.484Z,96.40
2018-11-04T07:46:55.933Z,96.40
2018-11-04T07:49:01.117Z,96.40
2018-11-04T07:51:05.155Z,96.60
2018-11-04T07:53:09.262Z,96.60
2018-11-04T07:55:15.695Z,96.10
2018-11-04T07:57:19.682Z,96.00
2018-11-04T07:59:24.669Z,96.00
2018-11-04T08:01:28.778Z,95.90
2018-11-04T08:03:33.725Z,95.50
2018-11-04T08:05:37.674Z,95.40
2018-11-04T08:07:42.415Z,95.40
2018-11-04T08:09:46.367Z,95.30
2018-11-04T08:11:50.317Z,95.70
2018-11-04T08:13:54.468Z,95.70
2018-11-04T08:15:58.920Z,95.40
2018-11-04T08:18:03.864Z,95.50
2018-11-04T08:20:08.449Z,95.50
2018-11-04T08:22:13.548Z,95.60
2018-11-04T08:24:17.863Z,95.60
2018-11-04T08:26:24.482Z,95.80
2018-11-04T08:28:29.500Z,95.80
2018-11-04T08:30:34.768Z,95.90
2018-11-04T08:32:42.662Z,95.90
2018-11-04T08:34:48.087Z,95.70
2018-11-04T08:36:54.543Z,95.60
2018-11-04T08:38:59.198Z,95.70
2018-11-04T08:41:07.379Z,95.60
2018-11-04T08:43:12.739Z,95.60
2018-11-04T08:45:17.603Z,95.90
2018-11-04T08:47:22.256Z,96.20
2018-11-04T08:49:29.428Z,95.90
2018-11-04T08:51:40.983Z,95.80
2018-11-04T08:53:47.114Z,95.50
2018-11-04T08:55:51.749Z,95.50
2018-11-04T08:57:59.189Z,95.60
2018-11-04T09:00:05.514Z,95.50
2018-11-04T09:02:10.211Z,95.50
2018-11-04T09:04:16.071Z,96.00
2018-11-04T09:06:22.081Z,95.70
2018-11-04T09:08:38.393Z,95.70
2018-11-04T09:10:44.335Z,95.80
2018-11-04T09:12:51.416Z,95.90
2018-11-04T09:14:57.588Z,96.00
2018-11-04T09:17:02.984Z,95.70
2018-11-04T09:19:15.483Z,95.70
2018-11-04T09:21:20.806Z,95.50
2018-11-04T09:23:26.381Z,95.60
2018-11-04T09:25:31.296Z,95.50
2018-11-04T09:27:37.372Z,95.50
2018-11-04T09:29:41.411Z,95.30
2018-11-04T09:31:46.172Z,95.10
2018-11-04T09:33:50.108Z,95.10
2018-11-04T09:35:54.910Z,94.90
2018-11-04T09:37:58.891Z,94.70
2018-11-04T09:40:05.715Z,94.60
2018-11-04T09:42:10.823Z,94.80
2018-11-04T09:44:14.862Z,95.10
2018-11-04T09:46:20.521Z,95.00
2018-11-04T09:48:27.060Z,95.30
2018-11-04T09:50:30.984Z,95.20
2018-11-04T09:52:34.938Z,95.30
2018-11-04T09:54:39.541Z,95.00
2018-11-04T09:56:44.560Z,94.50
2018-11-04T10:01:07.546Z,94.00
2018-11-04T10:03:11.528Z,94.00
2018-11-04T10:05:16.139Z,94.30
2018-11-04T10:07:22.381Z,94.30
2018-11-04T10:09:31.979Z,94.40
2018-11-04T10:11:36.691Z,94.20
2018-11-04T10:13:41.460Z,94.00
2018-11-04T10:15:46.312Z,94.20
2018-11-04T10:17:51.945Z,94.20
2018-11-04T10:19:56.014Z,94.00
2018-11-04T10:22:01.007Z,93.90
2018-11-04T10:24:05.813Z,93.60
2018-11-04T10:26:12.310Z,93.70
2018-11-04T10:28:16.908Z,93.40
2018-11-04T10:30:24.849Z,93.20
2018-11-04T10:32:30.677Z,93.20
2018-11-04T10:34:38.135Z,93.10
2018-11-04T10:36:43.264Z,93.40
2018-11-04T10:38:47.222Z,93.60
2018-11-04T10:40:53.812Z,93.80
2018-11-04T10:42:58.275Z,94.20
2018-11-04T10:45:02.199Z,94.40
2018-11-04T10:47:06.470Z,94.30
2018-11-04T10:49:12.197Z,94.30
2018-11-04T10:51:16.255Z,94.00
2018-11-04T10:53:20.943Z,93.50
2018-11-04T10:55:33.738Z,93.30
2018-11-04T10:57:37.825Z,92.80
2018-11-04T10:59:43.151Z,93.00
2018-11-04T11:01:50.251Z,93.10
2018-11-04T11:03:54.763Z,93.20
2018-11-04T11:05:58.747Z,93.20
2018-11-04T11:08:02.772Z,93.40
2018-11-04T11:10:09.219Z,93.20
2018-11-04T11:12:13.840Z,93.10
2018-11-04T11:14:17.988Z,92.90
2018-11-04T11:16:23.678Z,93.20
2018-11-04T11:18:28.116Z,93.00
2018-11-04T11:20:35.432Z,93.30
2018-11-04T11:22:41.722Z,93.40
2018-11-04T11:24:45.841Z,93.20
2018-11-04T11:26:49.807Z,93.30
2018-11-04T11:28:55.238Z,93.20
2018-11-04T11:30:59.586Z,92.90
2018-11-04T11:33:06.807Z,92.90
2018-11-04T11:35:13.090Z,93.00
2018-11-04T11:37:18.024Z,92.80
2018-11-04T11:39:22.311Z,92.50
2018-11-04T11:41:26.323Z,92.50
2018-11-04T11:43:31.115Z,92.40
2018-11-04T11:45:36.275Z,92.70
2018-11-04T11:47:42.375Z,92.40
2018-11-04T11:49:48.427Z,92.30
2018-11-04T11:51:53.923Z,92.20
2018-11-04T11:53:59.930Z,92.10
2018-11-04T11:56:04.243Z,92.40
2018-11-04T11:58:10.328Z,92.40
2018-11-04T12:00:15.947Z,92.20
2018-11-04T12:02:20.122Z,92.20
2018-11-04T12:04:26.590Z,92.10
2018-11-04T12:06:31.498Z,91.90
2018-11-04T12:08:37.955Z,91.80
2018-11-04T12:10:44.411Z,92.00
2018-11-04T12:12:48.356Z,92.40
2018-11-04T12:14:53.961Z,92.40
2018-11-04T12:16:58.571Z,92.30
2018-11-04T12:19:09.192Z,92.10
2018-11-04T12:21:13.147Z,92.10
2018-11-04T12:23:17.340Z,92.10
2018-11-04T12:25:22.564Z,92.10
2018-11-04T12:27:29.216Z,92.10
2018-11-04T12:29:33.324Z,92.40
2018-11-04T12:31:37.662Z,92.40
2018-11-04T12:33:52.403Z,92.40
2018-11-04T12:36:18.265Z,92.50
2018-11-04T12:38:22.280Z,92.50
2018-11-04T12:40:26.282Z,92.20
2018-11-04T12:42:30.400Z,92.10
2018-11-04T12:44:37.703Z,92.30
2018-11-04T12:46:42.032Z,92.70
2018-11-04T12:48:46.012Z,92.10
2018-11-04T12:50:56.176Z,92.20
2018-11-04T12:53:00.162Z,92.10
2018-11-04T12:55:07.196Z,91.80
2018-11-04T12:57:12.386Z,91.60
2018-11-04T12:59:17.579Z,91.40
2018-11-04T13:01:25.985Z,91.40
2018-11-04T13:03:30.000Z,91.70
2018-11-04T13:05:35.782Z,92.20
2018-11-04T13:07:46.812Z,92.10
2018-11-04T13:09:51.464Z,91.80
2018-11-04T13:11:56.305Z,91.70
2018-11-04T13:15:03.799Z,91.90
2018-11-04T13:17:09.100Z,92.10
2018-11-04T13:19:20.451Z,92.20
2018-11-04T13:21:25.541Z,92.30
2018-11-04T13:23:33.598Z,92.30
2018-11-04T13:25:41.985Z,92.60
2018-11-04T13:27:45.974Z,92.50
2018-11-04T13:29:55.306Z,92.80
2018-11-04T13:32:01.168Z,93.00
2018-11-04T13:34:06.472Z,93.30
2018-11-04T13:36:10.547Z,93.30
2018-11-04T13:38:16.259Z,93.10
2018-11-04T13:40:23.041Z,93.10
2018-11-04T13:42:29.301Z,93.10
2018-11-04T13:44:33.336Z,93.40
2018-11-04T13:46:40.851Z,93.30
2018-11-04T13:48:47.227Z,93.40
2018-11-04T13:50:52.050Z,93.20
2018-11-04T13:52:56.077Z,93.40
2018-11-04T13:55:01.072Z,93.70
2018-11-04T13:57:05.827Z,93.70
2018-11-04T13:59:09.819Z,93.40
2018-11-04T14:01:13.872Z,93.20
2018-11-04T14:03:18.904Z,92.90
2018-11-04T14:05:25.679Z,93.10
2018-11-04T14:07:29.735Z,93.30
2018-11-04T14:09:36.235Z,93.20
2018-11-04T14:11:42.233Z,93.20
2018-11-04T14:13:46.356Z,92.90
2018-11-04T14:15:50.863Z,92.90
2018-11-04T14:17:54.866Z,92.60
2018-11-04T14:20:00.363Z,92.50
2018-11-04T14:22:04.336Z,92.70
2018-11-04T14:24:08.442Z,93.00
2018-11-04T14:26:13.410Z,93.20
2018-11-04T14:28:18.461Z,93.40
2018-11-04T14:30:24.573Z,93.30
2018-11-04T14:32:28.600Z,93.30
2018-11-04T14:34:33.552Z,93.60
2018-11-04T14:36:38.230Z,93.70
2018-11-04T14:38:46.435Z,93.60
2018-11-04T14:40:51.595Z,93.70
2018-11-04T14:43:01.325Z,93.10
2018-11-04T14:45:07.274Z,93.00
2018-11-04T14:47:11.219Z,93.20
2018-11-04T14:49:15.599Z,93.20
2018-11-04T14:51:21.025Z,93.40
2018-11-04T14:53:24.926Z,93.40
2018-11-04T14:55:28.944Z,93.20
2018-11-04T14:57:33.649Z,93.10
2018-11-04T14:59:43.613Z,93.40
2018-11-04T15:01:49.533Z,93.40
2018-11-04T15:03:54.334Z,93.30
2018-11-04T15:05:58.635Z,93.00
2018-11-04T15:08:04.599Z,92.90
2018-11-04T15:10:11.140Z,93.10
2018-11-04T15:12:16.919Z,93.20
2018-11-04T15:14:21.464Z,93.30
2018-11-04T15:16:26.669Z,93.20
2018-11-04T15:18:30.704Z,93.30
2018-11-04T15:20:34.651Z,93.30
2018-11-04T15:22:42.670Z,93.20
2018-11-04T15:24:48.253Z,93.30
2018-11-04T15:26:52.211Z,92.90
2018-11-04T15:28:56.776Z,92.60
2018-11-04T15:31:01.260Z,92.70
2018-11-04T15:33:11.093Z,92.40
2018-11-04T15:37:32.045Z,92.40
2018-11-04T15:39:36.380Z,92.20
2018-11-04T15:41:41.042Z,92.40
2018-11-04T15:43:46.990Z,92.00
2018-11-04T15:45:52.779Z,92.00
2018-11-04T15:47:57.383Z,91.90
2018-11-04T15:50:01.696Z,92.00
2018-11-04T15:52:06.622Z,91.70
2018-11-04T15:54:11.559Z,91.90
2018-11-04T15:56:16.820Z,92.20
2018-11-04T15:58:22.658Z,92.40
2018-11-04T16:00:28.428Z,92.30
2018-11-04T16:02:32.412Z,92.40
2018-11-04T16:04:44.543Z,92.90
2018-11-04T16:06:43.255Z,92.90
2018-11-04T16:08:48.196Z,92.80
2018-11-04T16:10:55.208Z,93.00
2018-11-04T16:12:59.244Z,93.00
2018-11-04T16:15:03.281Z,93.20
2018-11-04T16:17:10.403Z,93.20
2018-11-04T16:19:14.357Z,93.40
2018-11-04T16:21:19.050Z,93.40
2018-11-04T16:23:28.470Z,93.20
2018-11-04T16:25:34.285Z,93.10
2018-11-04T16:27:40.892Z,93.00
2018-11-04T16:29:46.210Z,92.90
2018-11-04T16:31:50.768Z,93.10
2018-11-04T16:33:54.753Z,93.30
2018-11-04T16:35:59.419Z,93.50
2018-11-04T16:38:06.352Z,93.60
2018-11-04T16:40:10.584Z,93.80
2018-11-04T16:42:15.812Z,93.80
2018-11-04T16:44:22.626Z,93.90
2018-11-04T16:46:29.315Z,94.00
2018-11-04T16:48:34.188Z,94.00
2018-11-04T16:50:38.307Z,94.00
2018-11-04T16:52:45.824Z,94.20
2018-11-04T16:54:51.331Z,94.30
2018-11-04T16:56:59.383Z,94.40
2018-11-04T16:59:04.712Z,94.40
2018-11-04T17:01:09.641Z,94.60
2018-11-04T17:03:14.468Z,94.80
2018-11-04T17:05:19.678Z,94.80
2018-11-04T17:07:24.367Z,94.80
2018-11-04T17:09:30.367Z,94.70
2018-11-04T17:11:35.802Z,94.60
2018-11-04T17:13:40.445Z,94.70
2018-11-04T17:15:45.458Z,94.70
2018-11-04T17:17:49.498Z,94.50
2018-11-04T17:19:53.568Z,94.70
2018-11-04T17:22:00.695Z,94.80
2018-11-04T17:24:05.716Z,95.10
2018-11-04T17:26:21.211Z,95.10
2018-11-04T17:28:26.759Z,95.20
2018-11-04T17:30:32.304Z,95.60
2018-11-04T17:32:37.099Z,95.30
2018-11-04T17:34:41.740Z,95.40
2018-11-04T17:36:47.065Z,95.40
2018-11-04T17:38:53.346Z,95.30
2018-11-04T17:40:59.424Z,95.40
2018-11-04T17:43:08.081Z,95.40
2018-11-04T17:45:16.326Z,95.50
2018-11-04T17:47:24.115Z,95.00
2018-11-04T17:49:32.397Z,95.10
2018-11-04T17:51:39.096Z,95.00
2018-11-04T17:53:44.685Z,95.20
2018-11-04T17:55:50.239Z,95.20
2018-11-04T17:57:56.528Z,95.00
2018-11-04T18:00:02.196Z,95.00
2018-11-04T18:02:12.332Z,95.20
2018-11-04T18:04:17.776Z,94.70
2018-11-04T18:06:23.606Z,94.70
2018-11-04T18:08:28.436Z,94.80
2018-11-04T18:10:36.743Z,94.40
2018-11-04T18:12:46.064Z,94.30
2018-11-04T18:14:51.637Z,94.40
2018-11-04T18:16:57.101Z,94.80
2018-11-04T18:19:02.686Z,94.60
2018-11-04T18:21:08.325Z,94.80
2018-11-04T18:23:15.124Z,94.90
2018-11-04T18:25:21.272Z,95.10
2018-11-04T18:27:25.979Z,95.10
2018-11-04T18:29:33.722Z,95.10
2018-11-04T18:31:38.651Z,94.90
2018-11-04T18:33:46.595Z,95.10
2018-11-04T18:35:51.213Z,95.10
2018-11-04T18:37:55.163Z,95.10
2018-11-04T18:39:59.207Z,95.30
2018-11-04T18:42:04.417Z,95.40
2018-11-04T18:44:09.064Z,95.40
2018-11-04T18:46:13.632Z,95.40
2018-11-04T18:48:17.655Z,95.40
2018-11-04T18:50:21.645Z,95.40
2018-11-04T18:52:25.739Z,95.30
2018-11-04T18:54:29.716Z,95.50
2018-11-04T18:56:33.826Z,95.60
2018-11-04T18:58:40.200Z,95.60
2018-11-04T19:00:45.935Z,95.50
2018-11-04T19:02:50.275Z,95.50
2018-11-04T19:04:55.503Z,95.50
2018-11-04T19:06:59.495Z,95.50
2018-11-04T19:09:04.341Z,95.40
2018-11-04T19:11:10.585Z,95.30
2018-11-04T19:13:16.269Z,95.40
2018-11-04T19:15:25.966Z,95.30
2018-11-04T19:17:30.520Z,95.30
2018-11-04T19:19:35.132Z,95.20
2018-11-04T19:21:40.506Z,95.10
2018-11-04T19:23:44.988Z,95.50
2018-11-04T19:25:50.547Z,95.40
2018-11-04T19:27:55.223Z,95.10
2018-11-04T19:29:59.592Z,94.90
2018-11-04T19:32:05.503Z,94.90
2018-11-04T19:34:11.029Z,95.40
2018-11-04T19:36:15.548Z,94.90
2018-11-04T19:38:21.209Z,95.00
2018-11-04T19:40:25.187Z,95.00
2018-11-04T19:42:31.703Z,94.90
2018-11-04T19:44:40.076Z,95.00
2018-11-04T19:46:44.496Z,95.00
2018-11-04T19:48:49.713Z,95.20
2018-11-04T19:51:01.167Z,95.40
2018-11-04T19:53:05.806Z,95.40
2018-11-04T19:55:11.068Z,95.40
2018-11-04T19:57:16.251Z,95.50
2018-11-04T19:59:27.481Z,95.70
2018-11-04T20:01:33.454Z,95.70
2018-11-04T20:03:40.435Z,95.70
2018-11-04T20:05:48.472Z,95.60
2018-11-04T20:07:55.259Z,95.80
2018-11-04T20:09:59.834Z,96.00
2018-11-04T20:12:05.498Z,95.80
2018-11-04T20:14:15.963Z,95.60
2018-11-04T20:16:22.651Z,95.60
2018-11-04T20:20:39.712Z,95.80
2018-11-04T20:22:45.335Z,95.60
2018-11-04T20:24:55.475Z,95.40
2018-11-04T20:26:59.456Z,95.40
2018-11-04T20:29:04.048Z,95.20
2018-11-04T20:33:20.210Z,95.10
2018-11-04T20:35:28.655Z,94.90
2018-11-04T20:37:34.392Z,95.20
2018-11-04T20:39:43.996Z,95.20
2018-11-04T20:41:55.051Z,95.30
2018-11-04T20:46:15.220Z,95.20
2018-11-04T20:48:28.908Z,95.10
2018-11-04T20:50:37.978Z,95.10
2018-11-04T20:52:41.990Z,95.20
2018-11-04T20:54:46.098Z,95.10
2018-11-04T20:56:55.775Z,95.20
2018-11-04T20:59:02.524Z,95.30
2018-11-04T21:01:08.292Z,95.20
2018-11-04T21:03:12.319Z,95.20
2018-11-04T21:05:16.838Z,95.30
2018-11-04T21:07:36.236Z,95.60
2018-11-04T21:09:42.339Z,95.70
2018-11-04T21:11:47.508Z,95.70
2018-11-04T21:13:52.400Z,95.70
2018-11-04T21:15:57.328Z,95.80
2018-11-04T21:18:03.426Z,95.70
2018-11-04T21:20:11.327Z,95.70
2018-11-04T21:22:15.323Z,95.70
2018-11-04T21:24:20.509Z,95.80
2018-11-04T21:26:24.539Z,95.70
2018-11-04T21:28:29.302Z,95.50
2018-11-04T21:30:33.776Z,95.50
2018-11-04T21:32:39.635Z,95.70
2018-11-04T21:34:49.409Z,95.90
2018-11-04T21:36:53.405Z,95.90
2018-11-04T21:38:57.815Z,96.00
2018-11-04T21:41:02.583Z,96.10
2018-11-04T21:43:06.810Z,95.90
2018-11-04T21:45:14.453Z,95.90
2018-11-04T21:47:19.389Z,96.00
2018-11-04T21:49:23.445Z,96.00
2018-11-04T21:51:30.016Z,95.80
2018-11-04T21:53:37.249Z,95.90
2018-11-04T21:55:42.474Z,96.00
2018-11-04T21:57:47.530Z,96.10
2018-11-04T21:59:51.780Z,96.10
2018-11-04T22:01:55.783Z,95.80
2018-11-04T22:04:01.933Z,95.70
2018-11-04T22:06:06.064Z,95.40
2018-11-04T22:08:10.060Z,95.10
2018-11-04T22:10:15.378Z,94.80
2018-11-04T22:12:23.010Z,94.90
2018-11-04T22:14:29.080Z,95.30
2018-11-04T22:16:34.585Z,94.90
2018-11-04T22:18:39.441Z,95.10
2018-11-04T22:20:50.360Z,95.30
2018-11-04T22:22:54.337Z,95.30
2018-11-04T22:24:59.155Z,95.30
2018-11-04T22:27:03.489Z,95.60
2018-11-04T22:29:07.553Z,95.90
2018-11-04T22:31:15.988Z,96.00
2018-11-04T22:33:23.929Z,95.90
2018-11-04T22:35:27.895Z,95.90
2018-11-04T22:37:31.853Z,96.00
2018-11-04T22:39:36.427Z,96.00
2018-11-04T22:41:40.908Z,95.90
2018-11-04T22:43:49.423Z,95.80
2018-11-04T22:45:55.707Z,96.10
2018-11-04T22:48:00.548Z,96.20
2018-11-04T22:50:05.401Z,96.00
2018-11-04T22:52:09.316Z,96.00
2018-11-04T22:54:14.035Z,96.00
2018-11-04T22:56:20.105Z,96.30
2018-11-04T22:58:24.438Z,96.50
2018-11-04T23:00:33.772Z,96.40
2018-11-04T23:02:44.566Z,96.50
2018-11-04T23:04:54.586Z,96.40
2018-11-04T23:06:59.231Z,96.60
2018-11-04T23:09:04.124Z,96.50
2018-11-04T23:11:09.172Z,96.30
2018-11-04T23:13:20.083Z,96.50
2018-11-04T23:15:24.943Z,96.70
2018-11-04T23:17:29.078Z,96.70
2018-11-04T23:19:39.684Z,96.70
2018-11-04T23:21:45.420Z,96.70
2018-11-04T23:23:50.376Z,96.90
2018-11-04T23:25:55.120Z,97.00
2018-11-04T23:27:59.072Z,96.80
2018-11-04T23:30:18.963Z,96.70
2018-11-04T23:32:22.862Z,96.70
2018-11-04T23:34:27.880Z,96.80
2018-11-04T23:36:32.643Z,96.80
2018-11-04T23:38:37.248Z,96.70
2018-11-04T23:40:41.313Z,96.80
2018-11-04T23:42:45.571Z,96.90
2018-11-04T23:44:50.162Z,96.90
2018-11-04T23:46:54.439Z,96.70
2018-11-04T23:48:58.363Z,96.50
2018-11-04T23:51:02.639Z,96.40
2018-11-04T23:53:06.597Z,96.60
2018-11-04T23:55:11.493Z,96.70
2018-11-04T23:57:15.847Z,96.70
2018-11-04T23:59:19.810Z,96.70
